createdAt,value
2018-11-21T00:00:16.649Z,59.31
2018-11-21T00:02:45.637Z,58.89
2018-11-21T00:05:14.631Z,59.04
2018-11-21T00:07:43.563Z,59.10
2018-11-21T00:10:13.584Z,59.07
2018-11-21T00:12:47.255Z,58.95
2018-11-21T00:15:16.040Z,58.91
2018-11-21T00:17:44.818Z,59.27
2018-11-21T00:20:13.700Z,59.67
2018-11-21T00:22:42.471Z,59.44
2018-11-21T00:25:11.915Z,59.79
2018-11-21T00:27:40.951Z,59.84
2018-11-21T00:30:12.548Z,59.54
2018-11-21T00:32:41.362Z,59.55
2018-11-21T00:35:11.290Z,59.22
2018-11-21T00:37:40.173Z,59.14
2018-11-21T00:40:11.681Z,59.48
2018-11-21T00:42:46.378Z,59.63
2018-11-21T00:45:09.954Z,59.09
2018-11-21T00:47:38.855Z,59.04
2018-11-21T00:50:07.965Z,59.17
2018-11-21T00:52:36.981Z,59.59
2018-11-21T00:55:06.594Z,59.30
2018-11-21T00:57:35.453Z,59.33
2018-11-21T01:00:05.467Z,59.22
2018-11-21T01:02:34.232Z,59.44
2018-11-21T01:05:03.128Z,59.40
2018-11-21T01:07:32.417Z,59.64
2018-11-21T01:10:01.463Z,59.62
2018-11-21T01:12:30.452Z,59.70
2018-11-21T01:14:59.245Z,59.38
2018-11-21T01:17:28.008Z,59.11
2018-11-21T01:19:57.706Z,59.72
2018-11-21T01:22:26.445Z,59.91
2018-11-21T01:24:55.698Z,60.10
2018-11-21T01:27:24.419Z,59.79
2018-11-21T01:29:53.519Z,60.10
2018-11-21T01:32:22.218Z,59.99
2018-11-21T01:34:50.967Z,59.94
2018-11-21T01:37:19.708Z,60.19
2018-11-21T01:39:48.815Z,60.39
2018-11-21T01:42:17.825Z,60.16
2018-11-21T01:44:46.811Z,59.96
2018-11-21T01:47:15.545Z,59.91
2018-11-21T01:49:44.313Z,60.37
2018-11-21T01:52:13.108Z,60.27
2018-11-21T01:54:41.972Z,60.42
2018-11-21T01:57:10.723Z,60.85
2018-11-21T01:59:39.641Z,60.14
2018-11-21T02:02:08.504Z,60.62
2018-11-21T02:04:37.426Z,60.56
2018-11-21T02:07:06.444Z,60.96
2018-11-21T02:09:35.256Z,61.00
2018-11-21T02:12:04.045Z,60.92
2018-11-21T02:14:32.876Z,60.55
2018-11-21T02:17:01.869Z,60.52
2018-11-21T02:19:30.615Z,60.52
2018-11-21T02:21:59.467Z,60.36
2018-11-21T02:24:28.477Z,60.50
2018-11-21T02:26:57.543Z,60.24
2018-11-21T02:29:26.374Z,60.35
2018-11-21T02:31:55.285Z,60.38
2018-11-21T02:34:24.247Z,60.68
2018-11-21T02:36:53.169Z,60.74
2018-11-21T02:39:22.644Z,60.58
2018-11-21T02:41:51.403Z,60.83
2018-11-21T02:44:20.158Z,60.89
2018-11-21T02:46:49.031Z,61.32
2018-11-21T02:49:17.816Z,61.51
2018-11-21T02:51:46.997Z,61.35
2018-11-21T02:54:15.770Z,61.56
2018-11-21T02:57:19.610Z,61.58
2018-11-21T02:59:49.901Z,61.44
2018-11-21T03:02:18.794Z,61.42
2018-11-21T03:04:47.535Z,61.38
2018-11-21T03:07:16.319Z,61.41
2018-11-21T03:09:45.059Z,61.52
2018-11-21T03:12:13.847Z,61.57
2018-11-21T03:14:42.644Z,61.52
2018-11-21T03:17:11.580Z,61.58
2018-11-21T03:19:40.376Z,61.43
2018-11-21T03:22:09.230Z,61.38
2018-11-21T03:24:37.988Z,61.50
2018-11-21T03:27:06.836Z,61.28
2018-11-21T03:29:35.707Z,60.88
2018-11-21T03:32:05.271Z,61.13
2018-11-21T03:34:34.409Z,61.23
2018-11-21T03:37:03.815Z,61.36
2018-11-21T03:39:32.642Z,61.93
2018-11-21T03:42:01.454Z,62.10
2018-11-21T03:44:30.213Z,61.57
2018-11-21T03:46:58.944Z,62.14
2018-11-21T03:49:27.811Z,62.20
2018-11-21T03:51:56.652Z,61.71
2018-11-21T03:54:25.664Z,61.62
2018-11-21T03:56:54.482Z,61.52
2018-11-21T03:59:23.315Z,61.19
2018-11-21T04:01:55.186Z,61.34
2018-11-21T04:04:23.991Z,61.71
2018-11-21T04:06:52.881Z,62.10
2018-11-21T04:09:21.669Z,61.83
2018-11-21T04:11:50.433Z,62.00
2018-11-21T04:14:19.255Z,61.94
2018-11-21T04:16:48.585Z,61.86
2018-11-21T04:19:17.428Z,62.16
2018-11-21T04:21:46.297Z,61.96
2018-11-21T04:24:15.333Z,62.08
2018-11-21T04:26:44.142Z,61.92
2018-11-21T04:29:12.930Z,61.70
2018-11-21T04:31:41.946Z,61.61
2018-11-21T04:34:10.713Z,61.98
2018-11-21T04:36:39.471Z,61.81
2018-11-21T04:39:10.435Z,61.85
2018-11-21T04:41:39.492Z,61.39
2018-11-21T04:44:08.244Z,61.59
2018-11-21T04:46:37.284Z,61.22
2018-11-21T04:49:06.541Z,61.68
2018-11-21T04:51:35.348Z,61.65
2018-11-21T04:54:04.753Z,61.27
2018-11-21T04:56:33.507Z,61.53
2018-11-21T04:59:02.669Z,61.73
2018-11-21T05:01:33.681Z,61.33
2018-11-21T05:04:02.479Z,61.16
2018-11-21T05:06:31.259Z,61.23
2018-11-21T05:09:02.257Z,61.34
2018-11-21T05:11:31.013Z,61.34
2018-11-21T05:13:59.771Z,61.39
2018-11-21T05:16:35.656Z,61.21
2018-11-21T05:19:09.661Z,61.01
2018-11-21T05:21:38.406Z,61.14
2018-11-21T05:24:07.159Z,61.26
2018-11-21T05:26:36.036Z,61.30
2018-11-21T05:29:05.112Z,61.02
2018-11-21T05:31:33.971Z,61.21
2018-11-21T05:34:02.713Z,61.56
2018-11-21T05:36:31.492Z,61.66
2018-11-21T05:39:00.233Z,61.57
2018-11-21T05:41:28.955Z,61.81
2018-11-21T05:43:57.704Z,61.84
2018-11-21T05:46:30.317Z,61.98
2018-11-21T05:48:59.179Z,61.67
2018-11-21T05:51:27.949Z,61.69
2018-11-21T05:53:56.825Z,61.70
2018-11-21T05:56:25.951Z,61.39
2018-11-21T05:58:55.015Z,61.30
2018-11-21T06:01:23.784Z,61.73
2018-11-21T06:03:52.626Z,61.89
2018-11-21T06:06:25.440Z,62.00
2018-11-21T06:08:55.180Z,62.60
2018-11-21T06:11:26.818Z,63.56
2018-11-21T06:14:00.591Z,63.12
2018-11-21T06:16:29.498Z,63.19
2018-11-21T06:18:58.255Z,63.61
2018-11-21T06:21:29.093Z,63.07
2018-11-21T06:23:57.955Z,63.08
2018-11-21T06:26:26.752Z,63.02
2018-11-21T06:28:58.332Z,63.07
2018-11-21T06:31:30.852Z,63.00
2018-11-21T06:34:05.428Z,62.90
2018-11-21T06:36:34.237Z,63.37
2018-11-21T06:39:03.137Z,63.73
2018-11-21T06:41:31.971Z,64.04
2018-11-21T06:44:00.844Z,64.13
2018-11-21T06:46:31.252Z,64.10
2018-11-21T06:49:05.671Z,63.96
2018-11-21T06:51:35.323Z,64.09
2018-11-21T06:54:03.493Z,64.42
2018-11-21T06:56:32.549Z,64.46
2018-11-21T06:59:01.473Z,64.40
2018-11-21T07:01:30.443Z,64.49
2018-11-21T07:03:59.512Z,64.49
2018-11-21T07:06:29.328Z,64.46
2018-11-21T07:09:00.077Z,64.67
2018-11-21T07:11:29.278Z,64.75
2018-11-21T07:13:58.890Z,64.96
2018-11-21T07:16:27.670Z,65.42
2018-11-21T07:18:56.452Z,66.09
2018-11-21T07:21:25.383Z,65.91
2018-11-21T07:23:54.246Z,65.67
2018-11-21T07:26:24.481Z,65.92
2018-11-21T07:28:52.084Z,66.12
2018-11-21T07:31:21.022Z,66.11
2018-11-21T07:33:50.352Z,65.92
2018-11-21T07:36:19.169Z,65.37
2018-11-21T07:38:48.390Z,65.02
2018-11-21T07:41:17.940Z,65.18
2018-11-21T07:43:47.341Z,64.62
2018-11-21T07:46:16.098Z,64.93
2018-11-21T07:48:45.232Z,64.54
2018-11-21T07:51:14.037Z,64.49
2018-11-21T07:53:42.853Z,64.24
2018-11-21T07:57:11.063Z,64.02
2018-11-21T07:59:57.550Z,63.71
2018-11-21T08:02:31.833Z,63.44
2018-11-21T08:05:06.230Z,63.85
2018-11-21T08:07:43.451Z,64.46
2018-11-21T08:10:30.097Z,64.26
2018-11-21T08:13:36.948Z,64.92
2018-11-21T08:16:37.305Z,64.54
2018-11-21T08:19:24.628Z,64.01
2018-11-21T08:22:18.396Z,65.00
2018-11-21T08:25:04.909Z,64.78
2018-11-21T08:27:52.946Z,64.51
2018-11-21T08:30:22.045Z,64.29
2018-11-21T08:32:51.061Z,63.96
2018-11-21T08:35:20.214Z,63.74
2018-11-21T08:37:49.856Z,63.66
2018-11-21T08:40:18.971Z,63.19
2018-11-21T08:42:48.395Z,63.15
2018-11-21T08:45:17.415Z,63.07
2018-11-21T08:47:46.228Z,62.95
2018-11-21T08:50:15.229Z,63.13
2018-11-21T08:52:44.072Z,63.36
2018-11-21T08:55:12.998Z,62.92
2018-11-21T08:57:42.176Z,63.29
2018-11-21T09:00:13.502Z,63.26
2018-11-21T09:02:42.476Z,64.01
2018-11-21T09:05:11.657Z,63.54
2018-11-21T09:07:41.757Z,63.34
2018-11-21T09:10:15.455Z,63.56
2018-11-21T09:12:44.213Z,63.68
2018-11-21T09:15:14.650Z,63.21
2018-11-21T09:17:44.191Z,63.39
2018-11-21T09:20:14.976Z,64.10
2018-11-21T09:22:43.760Z,63.07
2018-11-21T09:25:13.039Z,62.38
2018-11-21T09:27:42.427Z,62.79
2018-11-21T09:30:16.324Z,62.52
2018-11-21T09:32:46.449Z,62.78
2018-11-21T09:35:17.294Z,63.16
2018-11-21T09:37:51.603Z,64.31
2018-11-21T09:40:21.766Z,63.88
2018-11-21T09:42:52.352Z,63.93
2018-11-21T09:45:22.267Z,63.28
2018-11-21T09:47:53.305Z,63.05
2018-11-21T09:50:26.497Z,62.56
2018-11-21T09:52:55.303Z,61.72
2018-11-21T09:55:24.412Z,61.68
2018-11-21T09:57:56.092Z,61.56
2018-11-21T10:01:18.744Z,61.48
2018-11-21T10:03:49.756Z,60.98
2018-11-21T10:06:27.833Z,62.53
2018-11-21T10:08:58.613Z,61.74
2018-11-21T10:11:28.526Z,61.30
2018-11-21T10:13:57.899Z,61.30
2018-11-21T10:16:31.710Z,61.11
2018-11-21T10:19:00.998Z,60.67
2018-11-21T10:21:32.154Z,60.14
2018-11-21T10:24:01.022Z,59.63
2018-11-21T10:26:29.861Z,59.90
2018-11-21T10:28:58.875Z,60.01
2018-11-21T10:31:28.131Z,59.79
2018-11-21T10:33:56.904Z,58.92
2018-11-21T10:36:35.151Z,59.40
2018-11-21T10:39:07.259Z,59.34
2018-11-21T10:41:39.564Z,59.06
2018-11-21T10:44:08.678Z,59.12
2018-11-21T10:46:37.783Z,58.65
2018-11-21T10:49:07.345Z,59.33
2018-11-21T10:51:43.374Z,59.35
2018-11-21T10:54:15.215Z,59.22
2018-11-21T10:56:49.602Z,59.58
2018-11-21T10:59:24.087Z,59.82
2018-11-21T11:02:11.316Z,59.80
2018-11-21T11:05:13.349Z,59.24
2018-11-21T11:08:02.490Z,59.69
2018-11-21T11:10:48.681Z,59.52
2018-11-21T11:13:40.534Z,59.67
2018-11-21T11:16:31.597Z,59.46
2018-11-21T11:19:37.551Z,59.73
2018-11-21T11:22:31.240Z,59.63
2018-11-21T11:25:20.556Z,59.20
2018-11-21T11:28:07.575Z,58.99
2018-11-21T11:31:02.489Z,58.92
2018-11-21T11:33:59.348Z,59.22
2018-11-21T11:36:51.893Z,58.89
2018-11-21T11:39:49.509Z,58.77
2018-11-21T11:42:42.325Z,58.28
2018-11-21T11:45:29.156Z,58.46
2018-11-21T11:48:17.511Z,58.54
2018-11-21T11:51:20.289Z,58.47
2018-11-21T11:54:09.041Z,59.23
2018-11-21T11:56:43.628Z,58.89
2018-11-21T11:59:32.250Z,59.42
2018-11-21T12:02:20.755Z,60.09
2018-11-21T12:05:01.553Z,59.60
2018-11-21T12:07:49.609Z,59.14
2018-11-21T12:10:34.900Z,59.48
2018-11-21T12:13:21.660Z,59.69
2018-11-21T12:16:12.732Z,59.47
2018-11-21T12:19:02.477Z,59.68
2018-11-21T12:21:49.159Z,60.28
2018-11-21T12:24:46.226Z,60.57
2018-11-21T12:27:40.387Z,60.32
2018-11-21T12:30:25.866Z,60.28
2018-11-21T12:33:16.837Z,60.12
2018-11-21T12:36:10.959Z,60.20
2018-11-21T12:39:18.430Z,60.50
2018-11-21T12:42:07.169Z,60.61
2018-11-21T12:45:00.204Z,60.76
2018-11-21T12:47:47.442Z,60.65
2018-11-21T12:50:36.936Z,60.55
2018-11-21T12:53:23.868Z,60.65
2018-11-21T12:56:10.371Z,60.65
2018-11-21T12:58:50.204Z,61.16
2018-11-21T13:01:53.561Z,60.99
2018-11-21T13:04:35.619Z,61.06
2018-11-21T13:07:41.501Z,60.54
2018-11-21T13:10:32.319Z,60.50
2018-11-21T13:13:25.917Z,60.21
2018-11-21T13:16:14.748Z,60.57
2018-11-21T13:19:01.201Z,60.80
2018-11-21T13:21:37.466Z,62.01
2018-11-21T13:24:15.993Z,63.28
2018-11-21T13:27:15.731Z,63.63
2018-11-21T13:30:01.114Z,63.93
2018-11-21T13:32:51.868Z,64.75
2018-11-21T13:35:40.400Z,67.52
2018-11-21T13:38:27.150Z,66.90
2018-11-21T13:41:12.993Z,66.52
2018-11-21T13:44:07.762Z,70.27
2018-11-21T13:46:58.595Z,64.81
2018-11-21T13:49:55.506Z,64.07
2018-11-21T13:52:49.691Z,64.71
2018-11-21T13:55:19.257Z,64.24
2018-11-21T13:57:48.402Z,62.81
2018-11-21T14:00:17.245Z,62.15
2018-11-21T14:02:46.432Z,61.82
2018-11-21T14:05:18.379Z,62.30
2018-11-21T14:07:47.218Z,63.05
2018-11-21T14:10:23.489Z,62.67
2018-11-21T14:12:54.369Z,62.42
2018-11-21T14:15:23.309Z,62.59
2018-11-21T14:17:52.002Z,62.54
2018-11-21T14:20:21.179Z,62.44
2018-11-21T14:22:49.991Z,62.40
2018-11-21T14:25:19.013Z,63.17
2018-11-21T14:27:55.302Z,63.57
2018-11-21T14:30:24.832Z,63.77
2018-11-21T14:32:56.544Z,63.49
2018-11-21T14:35:25.338Z,63.76
2018-11-21T14:37:59.826Z,64.28
2018-11-21T14:40:33.860Z,64.51
2018-11-21T14:43:11.011Z,64.46
2018-11-21T14:45:40.165Z,64.74
2018-11-21T14:48:14.300Z,64.32
2018-11-21T14:50:44.836Z,64.96
2018-11-21T14:53:17.153Z,64.42
2018-11-21T14:55:46.664Z,64.14
2018-11-21T14:58:15.438Z,64.25
2018-11-21T15:00:44.304Z,63.38
2018-11-21T15:03:18.318Z,63.67
2018-11-21T15:05:42.146Z,63.77
2018-11-21T15:08:11.135Z,63.87
2018-11-21T15:10:42.921Z,63.62
2018-11-21T15:13:11.714Z,63.94
2018-11-21T15:15:40.549Z,64.06
2018-11-21T15:18:09.337Z,64.21
2018-11-21T15:20:38.357Z,64.22
2018-11-21T15:23:10.005Z,64.12
2018-11-21T15:25:39.791Z,63.77
2018-11-21T15:28:11.681Z,63.23
2018-11-21T15:30:40.728Z,63.50
2018-11-21T15:33:09.791Z,63.63
2018-11-21T15:35:38.854Z,63.59
2018-11-21T15:38:07.784Z,63.63
2018-11-21T15:40:36.544Z,63.48
2018-11-21T15:43:05.523Z,63.46
2018-11-21T15:45:34.328Z,63.29
